Time;durP1;ratioP1;P1;durP2;ratioP2;P2;SDS_P1;SDS_P2;PMS_P1;PMS_P2;Temp;Humidity;BMP_temperature;BMP_pressure;BME280_temperature;BME280_humidity;BME280_pressure;Samples;Min_cycle;Max_cycle;Signal;HPM_P1;HPM_P2
2021/12/27 00:01:42;;;;;;;19.30;11.35;;;-0.90;99.90;;;;;;5014823;28;20038;-75
2021/12/27 00:04:08;;;;;;;19.23;12.23;;;0.00;99.90;;;;;;4997009;28;20053;-73
2021/12/27 00:06:33;;;;;;;15.48;10.75;;;-0.60;99.90;;;;;;4996212;28;20449;-73
2021/12/27 00:08:59;;;;;;;19.80;12.60;;;-0.90;99.90;;;;;;4997299;28;20076;-75
2021/12/27 00:11:25;;;;;;;21.67;12.82;;;-0.70;99.90;;;;;;4996899;28;20109;-73
2021/12/27 00:13:50;;;;;;;16.13;11.05;;;-1.00;99.90;;;;;;4979825;28;20101;-74
2021/12/27 00:16:16;;;;;;;17.95;11.40;;;-0.90;99.90;;;;;;4993617;28;20086;-73
2021/12/27 00:18:42;;;;;;;20.80;12.30;;;-1.00;99.90;;;;;;4993679;28;20129;-73
2021/12/27 00:21:08;;;;;;;21.20;11.20;;;-0.90;99.90;;;;;;4993095;28;20038;-73
2021/12/27 00:23:34;;;;;;;22.90;11.93;;;-0.90;99.90;;;;;;4976646;28;20050;-74
2021/12/27 00:25:59;;;;;;;20.17;11.68;;;-1.00;99.90;;;;;;4977479;28;20049;-72
2021/12/27 00:28:25;;;;;;;16.75;11.75;;;0.80;99.90;;;;;;4976234;28;20398;-75
2021/12/27 00:30:51;;;;;;;17.13;11.30;;;-1.00;99.90;;;;;;4993846;28;20402;-73
2021/12/27 00:33:16;;;;;;;18.38;11.77;;;-0.40;99.90;;;;;;4992840;28;20077;-74
2021/12/27 00:35:42;;;;;;;15.73;11.25;;;-1.00;99.90;;;;;;4992708;28;20491;-73
2021/12/27 00:38:08;;;;;;;19.55;11.57;;;-0.60;99.90;;;;;;4994907;28;20061;-73
2021/12/27 00:40:35;;;;;;;21.70;11.52;;;-0.30;99.90;;;;;;4985652;28;20046;-72
2021/12/27 00:43:01;;;;;;;18.15;11.85;;;-1.10;99.90;;;;;;4993553;28;20387;-73
2021/12/27 00:45:26;;;;;;;19.92;12.38;;;0.00;99.90;;;;;;4992145;28;20049;-73
2021/12/27 00:47:53;;;;;;;16.27;11.40;;;-1.10;99.90;;;;;;4992662;28;20046;-73
2021/12/27 00:50:20;;;;;;;17.33;11.35;;;-1.10;99.90;;;;;;4976671;28;20049;-74
2021/12/27 00:52:46;;;;;;;20.60;11.80;;;-1.10;99.90;;;;;;4993670;28;20407;-75
2021/12/27 00:55:13;;;;;;;17.58;12.25;;;-1.20;99.90;;;;;;4992294;28;20042;-73
2021/12/27 00:57:39;;;;;;;18.27;11.25;;;-1.10;99.90;;;;;;4992490;28;20053;-73
2021/12/27 01:00:09;;;;;;;18.05;11.40;;;-1.10;99.90;;;;;;4977038;28;20402;-73
2021/12/27 01:02:34;;;;;;;20.48;12.45;;;-1.10;99.90;;;;;;4974639;28;20396;-75
2021/12/27 01:05:00;;;;;;;19.52;12.63;;;-0.40;99.90;;;;;;4976512;28;20065;-73
2021/12/27 01:07:26;;;;;;;17.08;12.93;;;-1.00;99.90;;;;;;4992460;28;20054;-73
2021/12/27 01:10:20;;;;;;;19.48;12.23;;;-1.10;99.90;;;;;;4992246;28;20487;-73
2021/12/27 01:13:19;;;;;;;19.00;11.25;;;-1.10;99.90;;;;;;5018827;28;20129;-73
2021/12/27 01:17:59;;;;;;;19.92;11.75;;;-1.10;99.90;;;;;;4992688;28;20082;-74
2021/12/27 01:20:25;;;;;;;17.45;11.80;;;-1.10;99.90;;;;;;4992010;28;20406;-74
2021/12/27 01:22:53;;;;;;;18.92;12.88;;;-1.10;99.90;;;;;;4992207;28;20073;-73
2021/12/27 01:25:19;;;;;;;22.65;12.10;;;-0.20;99.90;;;;;;4991642;28;20065;-73
2021/12/27 01:27:45;;;;;;;18.52;12.70;;;-1.10;99.90;;;;;;4992482;28;20121;-74
2021/12/27 01:30:21;;;;;;;18.70;12.20;;;-1.10;99.90;;;;;;4991746;28;20054;-73
2021/12/27 01:32:55;;;;;;;21.17;13.20;;;-1.10;99.90;;;;;;5018565;28;20050;-74
2021/12/27 01:35:22;;;;;;;18.30;12.57;;;-1.20;99.90;;;;;;4975647;28;20433;-74
2021/12/27 01:37:51;;;;;;;20.67;12.20;;;-1.10;99.90;;;;;;4992003;28;20046;-74
2021/12/27 01:40:20;;;;;;;18.75;11.65;;;-0.70;99.90;;;;;;4992001;28;20383;-74
2021/12/27 01:43:09;;;;;;;18.38;12.27;;;-1.00;99.90;;;;;;4992433;28;20402;-73
2021/12/27 01:45:40;;;;;;;17.52;11.77;;;-1.10;99.90;;;;;;4990518;28;20450;-75
2021/12/27 01:48:07;;;;;;;20.40;12.48;;;-1.10;99.90;;;;;;4976001;28;20042;-74
2021/12/27 01:50:39;;;;;;;19.00;12.82;;;-0.30;99.90;;;;;;4991396;28;20510;-73
2021/12/27 01:53:05;;;;;;;20.67;12.93;;;-1.20;99.90;;;;;;4975257;28;20041;-74
2021/12/27 01:55:32;;;;;;;18.55;12.70;;;-1.30;99.90;;;;;;4975099;28;20485;-75
2021/12/27 01:57:58;;;;;;;21.30;13.15;;;-1.10;99.90;;;;;;4991547;28;20431;-74
2021/12/27 02:00:23;;;;;;;20.10;13.27;;;-1.10;99.90;;;;;;4991404;28;20046;-74
2021/12/27 02:02:49;;;;;;;19.52;12.13;;;0.20;99.90;;;;;;4975476;28;20137;-73
2021/12/27 02:05:15;;;;;;;19.38;12.73;;;-0.50;99.90;;;;;;4992149;28;20039;-73
2021/12/27 02:07:41;;;;;;;19.85;12.07;;;-1.20;99.90;;;;;;4992827;28;20066;-74
2021/12/27 02:10:08;;;;;;;19.30;13.52;;;-1.20;99.90;;;;;;4992179;28;20128;-74
2021/12/27 02:12:33;;;;;;;18.65;12.63;;;-1.20;99.90;;;;;;4991586;28;20410;-73
2021/12/27 02:15:05;;;;;;;19.23;12.23;;;-1.20;99.90;;;;;;4991353;28;20141;-74
2021/12/27 02:17:30;;;;;;;20.80;13.02;;;-1.50;99.90;;;;;;4990978;28;20070;-74
2021/12/27 02:19:56;;;;;;;20.52;13.35;;;-1.20;99.90;;;;;;4974632;28;20096;-75
2021/12/27 02:22:22;;;;;;;21.13;13.35;;;1.10;99.90;;;;;;4990925;28;20041;-74
2021/12/27 02:24:48;;;;;;;20.60;11.48;;;-1.10;99.90;;;;;;4991394;28;20057;-74
2021/12/27 02:27:16;;;;;;;20.45;13.05;;;-1.20;99.90;;;;;;4974663;28;20177;-74
2021/12/27 02:29:42;;;;;;;18.27;12.18;;;-1.30;99.90;;;;;;5015785;28;20475;-74
2021/12/27 02:32:08;;;;;;;19.33;12.63;;;-0.70;99.90;;;;;;4991320;28;20098;-73
2021/12/27 02:34:34;;;;;;;20.42;12.98;;;-1.10;99.90;;;;;;4989903;28;20086;-73
2021/12/27 02:37:00;;;;;;;23.23;12.85;;;-0.80;99.90;;;;;;4975416;28;20061;-75
2021/12/27 02:39:28;;;;;;;18.15;12.10;;;-1.10;99.90;;;;;;4974111;28;20088;-76
2021/12/27 02:41:55;;;;;;;22.02;13.82;;;-1.00;99.90;;;;;;4990696;28;20061;-74
2021/12/27 02:44:20;;;;;;;19.75;13.10;;;-1.00;99.90;;;;;;4990147;28;20046;-74
2021/12/27 02:46:46;;;;;;;21.30;13.75;;;-1.00;99.90;;;;;;4992279;28;20046;-74
2021/12/27 02:49:11;;;;;;;21.67;13.48;;;-1.00;99.90;;;;;;4990262;28;20128;-76
2021/12/27 02:51:37;;;;;;;18.65;12.57;;;-1.10;99.90;;;;;;4974448;28;20042;-73
2021/12/27 02:54:03;;;;;;;21.55;13.20;;;-1.10;99.90;;;;;;4990094;28;20038;-74
2021/12/27 02:56:29;;;;;;;18.63;12.00;;;-0.60;99.90;;;;;;4990675;28;20047;-73
2021/12/27 02:58:56;;;;;;;19.27;13.18;;;-1.20;99.90;;;;;;4975185;28;20042;-74
2021/12/27 03:01:24;;;;;;;19.33;13.00;;;-1.10;99.90;;;;;;4973848;28;20460;-73
2021/12/27 03:03:50;;;;;;;17.58;11.82;;;-0.90;99.90;;;;;;4990493;28;20045;-76
2021/12/27 03:06:16;;;;;;;21.13;12.85;;;-0.30;99.90;;;;;;4990659;28;20034;-73
2021/12/27 03:08:45;;;;;;;21.70;13.93;;;-0.10;99.90;;;;;;4974141;28;20057;-73
2021/12/27 03:11:11;;;;;;;22.48;14.52;;;-1.10;99.90;;;;;;4975281;28;20078;-75
2021/12/27 03:13:39;;;;;;;18.85;12.75;;;-0.90;99.90;;;;;;4990076;28;20085;-73
2021/12/27 03:16:11;;;;;;;17.60;12.10;;;-0.90;99.90;;;;;;4989997;28;20061;-73
2021/12/27 03:18:39;;;;;;;21.27;13.15;;;-0.90;99.90;;;;;;4974177;28;20070;-74
2021/12/27 03:21:06;;;;;;;21.23;14.20;;;-0.70;99.90;;;;;;4990851;28;20042;-74
2021/12/27 03:23:33;;;;;;;21.50;13.25;;;-1.00;99.90;;;;;;4988804;28;20129;-73
2021/12/27 03:25:59;;;;;;;20.73;12.63;;;-0.90;99.90;;;;;;4992204;28;20038;-74
2021/12/27 03:28:25;;;;;;;19.10;12.50;;;-0.40;99.90;;;;;;4973959;28;20034;-75
2021/12/27 03:30:51;;;;;;;18.45;13.35;;;-1.00;99.90;;;;;;4990164;28;20133;-74
2021/12/27 03:33:20;;;;;;;22.15;13.82;;;0.00;99.90;;;;;;4990082;28;20475;-75
2021/12/27 03:36:01;;;;;;;23.02;14.00;;;-1.80;99.90;;;;;;5015522;28;20047;-74
2021/12/27 03:38:31;;;;;;;24.17;14.20;;;-0.90;99.90;;;;;;5022091;28;20129;-75
2021/12/27 03:40:57;;;;;;;20.67;13.77;;;-0.50;99.90;;;;;;4990715;28;20552;-74
2021/12/27 03:43:23;;;;;;;19.00;13.20;;;-0.90;99.90;;;;;;4990492;28;20042;-73
2021/12/27 03:45:49;;;;;;;21.08;13.68;;;-0.60;99.90;;;;;;4990596;28;20073;-74
2021/12/27 03:48:15;;;;;;;21.13;13.50;;;-0.30;99.90;;;;;;4990696;28;20049;-74
2021/12/27 03:50:40;;;;;;;19.52;13.93;;;-0.60;99.90;;;;;;4973287;28;20125;-74
2021/12/27 03:53:07;;;;;;;22.27;14.23;;;-0.90;99.90;;;;;;4974189;28;20551;-74
2021/12/27 03:55:33;;;;;;;21.23;14.05;;;-0.90;99.90;;;;;;4973795;28;20449;-73
2021/12/27 03:58:09;;;;;;;22.77;12.88;;;-0.80;99.90;;;;;;4973503;28;20089;-75
2021/12/27 04:01:00;;;;;;;20.42;13.45;;;-0.90;99.90;;;;;;4973617;28;20049;-73
2021/12/27 04:03:27;;;;;;;19.83;13.52;;;-0.90;99.90;;;;;;4973296;28;20050;-74
2021/12/27 04:05:52;;;;;;;20.25;14.32;;;-0.90;99.90;;;;;;4989680;28;20085;-74
2021/12/27 04:08:18;;;;;;;25.95;15.48;;;0.00;99.90;;;;;;4973881;28;20046;-73
2021/12/27 04:10:46;;;;;;;21.77;14.88;;;-1.00;99.90;;;;;;4977508;28;20053;-75
2021/12/27 04:13:12;;;;;;;23.23;14.50;;;1.60;99.90;;;;;;4992964;28;20042;-75
2021/12/27 04:15:38;;;;;;;24.25;15.25;;;-0.90;99.90;;;;;;5005558;28;20062;-74
2021/12/27 04:18:05;;;;;;;26.88;14.57;;;-0.80;99.90;;;;;;4996971;28;20141;-74
2021/12/27 04:20:31;;;;;;;20.48;14.02;;;-1.00;99.90;;;;;;4979576;28;20042;-74
2021/12/27 04:22:57;;;;;;;24.45;16.02;;;-0.80;99.90;;;;;;4980470;28;20076;-74
2021/12/27 04:25:23;;;;;;;24.00;15.55;;;-0.90;99.90;;;;;;4979920;28;20049;-73
2021/12/27 04:27:50;;;;;;;22.42;14.60;;;-1.00;99.90;;;;;;5005720;28;20053;-73
2021/12/27 04:30:17;;;;;;;26.15;16.10;;;-0.80;99.90;;;;;;4996905;28;20405;-73
2021/12/27 04:32:43;;;;;;;23.05;14.70;;;-0.80;99.90;;;;;;4996144;28;20049;-74
2021/12/27 04:35:09;;;;;;;22.13;15.15;;;-0.80;99.90;;;;;;4996439;28;20042;-74
2021/12/27 04:37:35;;;;;;;26.27;15.80;;;-0.80;99.90;;;;;;4996297;28;20062;-72
2021/12/27 04:40:04;;;;;;;22.52;14.52;;;-0.90;99.90;;;;;;4995876;28;20505;-74
2021/12/27 04:42:31;;;;;;;26.02;15.25;;;-0.70;99.90;;;;;;4979668;28;20501;-73
2021/12/27 04:44:58;;;;;;;24.25;15.05;;;-0.80;99.90;;;;;;4980073;28;20042;-74
2021/12/27 04:47:24;;;;;;;26.00;15.63;;;-0.50;99.90;;;;;;4995438;28;20107;-75
2021/12/27 04:49:50;;;;;;;22.08;15.13;;;-0.70;99.90;;;;;;4988672;28;20113;-74
2021/12/27 04:52:15;;;;;;;26.65;15.77;;;-0.80;99.90;;;;;;4996323;28;20871;-74
2021/12/27 04:54:41;;;;;;;27.67;15.40;;;-0.80;99.90;;;;;;4995232;28;20037;-74
2021/12/27 04:57:07;;;;;;;25.27;15.40;;;0.00;99.90;;;;;;4980331;28;20536;-75
2021/12/27 04:59:33;;;;;;;23.70;15.43;;;0.00;99.90;;;;;;4995588;28;20532;-74
2021/12/27 05:01:59;;;;;;;24.33;15.25;;;-0.70;99.90;;;;;;4995461;28;20466;-74
2021/12/27 05:04:24;;;;;;;25.55;16.30;;;-0.70;99.90;;;;;;4995028;28;20045;-74
2021/12/27 05:06:50;;;;;;;28.63;15.90;;;-0.70;99.90;;;;;;4980026;28;20038;-74
2021/12/27 05:09:15;;;;;;;25.20;15.45;;;-0.70;99.90;;;;;;4995532;28;20081;-74
2021/12/27 05:11:41;;;;;;;24.45;15.85;;;-0.90;99.90;;;;;;4979346;28;20041;-73
2021/12/27 05:14:07;;;;;;;23.73;16.02;;;-0.70;99.90;;;;;;4995505;28;20042;-74
2021/12/27 05:16:33;;;;;;;24.73;15.32;;;-0.70;99.90;;;;;;4994632;28;20088;-74
2021/12/27 05:18:58;;;;;;;26.38;17.35;;;-0.70;99.90;;;;;;4980094;28;20045;-73
2021/12/27 05:21:25;;;;;;;26.08;16.23;;;-0.70;99.90;;;;;;4994318;28;20505;-74
2021/12/27 05:23:50;;;;;;;27.73;17.55;;;-0.60;99.90;;;;;;4994787;28;20042;-75
2021/12/27 05:26:16;;;;;;;29.25;16.50;;;-0.60;99.90;;;;;;4995914;28;20133;-74
2021/12/27 05:28:42;;;;;;;28.25;17.73;;;-0.70;99.90;;;;;;4995905;28;20481;-74
2021/12/27 05:31:07;;;;;;;26.35;16.98;;;-0.60;99.90;;;;;;4995729;28;20042;-74
2021/12/27 05:33:33;;;;;;;24.35;15.25;;;-0.60;99.90;;;;;;4994751;28;20498;-74
2021/12/27 05:35:59;;;;;;;25.40;16.35;;;-0.60;99.90;;;;;;4978945;28;20053;-74
2021/12/27 05:38:25;;;;;;;26.92;17.23;;;-0.60;99.90;;;;;;4994882;28;20042;-74
2021/12/27 05:40:52;;;;;;;28.20;17.23;;;-0.60;99.90;;;;;;4995810;28;20203;-76
2021/12/27 05:43:18;;;;;;;29.35;17.55;;;-0.60;99.90;;;;;;4993850;28;20045;-74
2021/12/27 05:45:44;;;;;;;27.02;17.20;;;-0.40;99.90;;;;;;4995389;28;20496;-74
2021/12/27 05:48:10;;;;;;;24.63;17.52;;;0.40;99.90;;;;;;4979853;28;20100;-77
2021/12/27 05:50:35;;;;;;;30.50;17.40;;;-0.60;99.90;;;;;;5011511;28;20563;-74
2021/12/27 05:53:02;;;;;;;31.52;18.02;;;-0.60;99.90;;;;;;4995571;28;20038;-74
2021/12/27 05:55:28;;;;;;;24.73;16.90;;;-0.60;99.90;;;;;;4994953;28;20033;-75
2021/12/27 05:57:53;;;;;;;31.98;18.50;;;-0.60;99.90;;;;;;4986867;28;20049;-74
2021/12/27 06:00:19;;;;;;;32.47;18.55;;;-0.60;99.90;;;;;;4994599;28;20045;-73
2021/12/27 06:02:45;;;;;;;31.63;17.23;;;-0.40;99.90;;;;;;4978616;28;20042;-76
2021/12/27 06:05:12;;;;;;;35.40;19.27;;;-0.60;99.90;;;;;;4994323;28;20120;-74
2021/12/27 06:07:38;;;;;;;29.50;18.20;;;-0.50;99.90;;;;;;4978220;28;20053;-75
2021/12/27 06:10:05;;;;;;;31.10;18.58;;;1.90;99.90;;;;;;4979427;28;20386;-74
2021/12/27 06:12:32;;;;;;;32.30;18.98;;;-0.50;99.90;;;;;;4994081;28;20060;-76
2021/12/27 06:14:58;;;;;;;30.77;17.80;;;-0.60;99.90;;;;;;4994685;28;20057;-76
2021/12/27 06:17:24;;;;;;;35.67;19.10;;;0.70;99.90;;;;;;4978358;28;20095;-75
2021/12/27 06:19:50;;;;;;;35.97;19.35;;;-0.50;99.90;;;;;;5011701;28;20049;-73
2021/12/27 06:22:17;;;;;;;33.65;19.20;;;-0.50;99.90;;;;;;4994674;28;20069;-74
2021/12/27 06:24:43;;;;;;;33.00;19.48;;;-0.50;99.90;;;;;;4978382;28;20057;-73
2021/12/27 06:27:08;;;;;;;35.45;18.98;;;-0.50;99.90;;;;;;4994265;28;20045;-75
2021/12/27 06:29:34;;;;;;;37.05;19.50;;;0.10;99.90;;;;;;4994214;28;20038;-76
2021/12/27 06:31:59;;;;;;;36.80;18.92;;;1.70;99.90;;;;;;4994356;28;20071;-75
2021/12/27 06:34:25;;;;;;;46.45;21.23;;;-0.50;99.90;;;;;;4977210;28;20044;-74
2021/12/27 06:36:51;;;;;;;36.35;18.58;;;-0.50;99.90;;;;;;4994553;28;20115;-74
2021/12/27 06:39:16;;;;;;;37.03;20.08;;;-0.50;99.90;;;;;;5011058;28;20344;-73
2021/12/27 06:41:42;;;;;;;33.15;18.25;;;0.20;99.90;;;;;;5011763;28;20094;-74
2021/12/27 06:44:07;;;;;;;38.50;19.88;;;-0.20;99.90;;;;;;5011742;28;20042;-74
2021/12/27 06:46:33;;;;;;;36.88;18.30;;;-0.50;99.90;;;;;;4993277;28;20060;-76
2021/12/27 06:48:59;;;;;;;32.40;18.52;;;-0.50;99.90;;;;;;4994717;28;20121;-76
2021/12/27 06:51:24;;;;;;;30.33;18.33;;;-0.50;99.90;;;;;;4993868;28;20474;-74
2021/12/27 06:53:50;;;;;;;36.88;17.98;;;-0.40;99.90;;;;;;5011172;28;20041;-74
2021/12/27 06:56:16;;;;;;;37.35;20.23;;;1.30;99.90;;;;;;4977835;28;20144;-74
2021/12/27 06:58:41;;;;;;;38.10;19.88;;;-0.40;99.90;;;;;;5011475;28;20038;-75
2021/12/27 07:01:08;;;;;;;33.30;18.33;;;-0.40;99.90;;;;;;4993720;28;20137;-75
2021/12/27 07:03:34;;;;;;;40.20;20.52;;;-0.60;99.90;;;;;;4977130;28;20501;-75
2021/12/27 07:06:00;;;;;;;35.40;18.65;;;-0.40;99.90;;;;;;4994368;28;20042;-74
2021/12/27 07:08:27;;;;;;;32.65;18.00;;;-0.40;99.90;;;;;;4976821;28;20462;-74
2021/12/27 07:10:52;;;;;;;67.80;35.13;;;-0.40;99.90;;;;;;4994220;28;20532;-76
2021/12/27 07:13:18;;;;;;;77.93;36.97;;;-0.30;99.90;;;;;;4993386;28;20034;-75
2021/12/27 07:15:45;;;;;;;43.83;22.33;;;-0.30;99.90;;;;;;4993167;28;20061;-73
2021/12/27 07:18:12;;;;;;;42.70;19.92;;;0.10;99.90;;;;;;4994403;28;20073;-74
2021/12/27 07:20:38;;;;;;;42.05;19.13;;;-0.30;99.90;;;;;;4993644;28;20140;-75
2021/12/27 07:23:05;;;;;;;37.38;19.35;;;0.50;99.90;;;;;;4977057;28;20514;-75
2021/12/27 07:25:31;;;;;;;34.42;19.30;;;-0.20;99.90;;;;;;4993753;28;20077;-74
2021/12/27 07:27:57;;;;;;;39.10;19.75;;;-0.20;99.90;;;;;;4994064;28;20040;-74
2021/12/27 07:30:23;;;;;;;35.30;17.85;;;0.30;99.90;;;;;;4976585;28;20401;-76
2021/12/27 07:32:48;;;;;;;44.60;22.00;;;-0.20;99.90;;;;;;4993979;28;20045;-74
2021/12/27 07:35:15;;;;;;;40.97;20.65;;;-0.30;99.90;;;;;;4993943;28;20045;-74
2021/12/27 07:37:41;;;;;;;43.90;21.13;;;-0.30;99.90;;;;;;4992979;28;20104;-74
2021/12/27 07:40:07;;;;;;;41.75;19.55;;;-0.20;99.90;;;;;;5011437;28;20038;-75
2021/12/27 07:42:33;;;;;;;44.72;23.05;;;-0.20;99.90;;;;;;4976390;28;20065;-76
2021/12/27 07:44:58;;;;;;;47.63;22.65;;;-0.30;99.90;;;;;;5014307;28;20050;-76
2021/12/27 07:47:24;;;;;;;45.25;22.30;;;-0.30;99.90;;;;;;4997277;28;20044;-74
2021/12/27 07:49:49;;;;;;;49.03;22.08;;;-0.30;99.90;;;;;;5014694;28;20516;-74
2021/12/27 07:52:15;;;;;;;47.17;23.25;;;-0.30;99.90;;;;;;4997684;28;20038;-74
2021/12/27 07:54:41;;;;;;;42.00;21.55;;;1.90;99.90;;;;;;4964522;28;20042;-76
2021/12/27 07:57:07;;;;;;;48.25;22.50;;;-0.30;99.90;;;;;;5014802;28;20394;-75
2021/12/27 07:59:32;;;;;;;43.03;22.27;;;-0.20;99.90;;;;;;5014776;28;20050;-76
2021/12/27 08:01:58;;;;;;;43.63;21.90;;;-0.30;99.90;;;;;;4997272;28;20049;-74
2021/12/27 08:04:24;;;;;;;46.17;21.33;;;-0.20;99.90;;;;;;4995863;28;20053;-76
2021/12/27 08:06:50;;;;;;;42.55;21.23;;;-0.20;99.90;;;;;;4997456;28;20049;-73
2021/12/27 08:09:16;;;;;;;42.53;21.90;;;-0.40;99.90;;;;;;4980999;28;20124;-74
2021/12/27 08:11:42;;;;;;;50.30;23.20;;;-0.30;99.90;;;;;;4980576;28;20046;-74
2021/12/27 08:14:08;;;;;;;57.20;23.75;;;-0.20;99.90;;;;;;4996842;28;20041;-76
2021/12/27 08:16:33;;;;;;;53.17;23.17;;;-0.30;99.90;;;;;;4976848;28;20520;-74
2021/12/27 08:18:59;;;;;;;45.70;22.23;;;-0.10;99.90;;;;;;4992916;28;20526;-74
2021/12/27 08:21:26;;;;;;;43.70;21.42;;;-0.20;99.90;;;;;;4994717;28;20038;-74
2021/12/27 08:23:52;;;;;;;51.50;23.27;;;0.00;99.90;;;;;;4977290;28;20136;-75
2021/12/27 08:26:18;;;;;;;59.55;27.52;;;-0.10;99.90;;;;;;4992611;28;20507;-74
2021/12/27 08:28:48;;;;;;;54.10;25.55;;;-0.10;99.90;;;;;;4993745;28;20134;-76
2021/12/27 08:31:13;;;;;;;51.70;22.30;;;-0.10;99.90;;;;;;4977407;28;20074;-75
2021/12/27 08:33:39;;;;;;;48.20;20.95;;;-0.10;99.90;;;;;;4991798;28;20086;-74
2021/12/27 08:36:05;;;;;;;46.53;21.63;;;-0.10;99.90;;;;;;4993253;28;20034;-74
2021/12/27 08:38:31;;;;;;;44.63;22.10;;;-0.10;99.90;;;;;;4976600;28;20042;-74
2021/12/27 08:40:57;;;;;;;46.90;21.48;;;0.00;99.90;;;;;;4993009;28;20054;-74
2021/12/27 08:43:22;;;;;;;55.25;23.67;;;-0.10;99.90;;;;;;4976722;28;20044;-77
2021/12/27 08:45:48;;;;;;;53.83;23.73;;;-0.10;99.90;;;;;;4976502;28;20054;-77
2021/12/27 08:48:14;;;;;;;44.25;22.05;;;0.00;99.90;;;;;;4993159;28;20046;-77
2021/12/27 08:50:41;;;;;;;61.05;23.13;;;0.40;99.90;;;;;;4992935;28;20049;-74
2021/12/27 08:53:07;;;;;;;49.97;22.33;;;1.80;99.90;;;;;;4976545;28;20042;-76
2021/12/27 08:55:34;;;;;;;59.20;23.90;;;0.40;99.90;;;;;;4976396;28;20505;-77
2021/12/27 08:58:00;;;;;;;46.80;22.00;;;0.00;99.90;;;;;;4977087;28;20100;-77
2021/12/27 09:00:26;;;;;;;46.40;21.33;;;0.00;99.90;;;;;;4991945;28;20047;-77
2021/12/27 09:02:51;;;;;;;48.33;23.77;;;0.00;99.90;;;;;;4992892;28;20082;-74
2021/12/27 09:05:17;;;;;;;64.97;24.90;;;0.10;99.90;;;;;;4992577;28;20065;-76
2021/12/27 09:07:42;;;;;;;53.25;23.10;;;-1.00;99.90;;;;;;4976410;28;20062;-74
2021/12/27 09:10:09;;;;;;;61.00;23.70;;;0.00;99.90;;;;;;4976920;28;20057;-75
2021/12/27 09:12:35;;;;;;;51.17;23.10;;;0.60;99.90;;;;;;4992125;28;20053;-75
2021/12/27 09:15:00;;;;;;;58.65;23.23;;;0.90;99.90;;;;;;4975272;28;20053;-74
2021/12/27 09:17:26;;;;;;;68.00;24.45;;;0.30;99.90;;;;;;4993506;28;20043;-74
2021/12/27 09:19:52;;;;;;;67.38;24.58;;;0.20;99.90;;;;;;4993716;28;20042;-77
2021/12/27 09:22:18;;;;;;;74.88;27.23;;;0.30;99.90;;;;;;4975049;28;20041;-73
2021/12/27 09:24:45;;;;;;;58.70;23.45;;;0.10;99.90;;;;;;4976399;28;20054;-74
2021/12/27 09:27:10;;;;;;;60.80;24.25;;;0.10;99.90;;;;;;4976378;28;20097;-74
2021/12/27 09:29:37;;;;;;;55.30;22.95;;;0.10;99.90;;;;;;4975223;28;20489;-74
2021/12/27 09:32:03;;;;;;;72.03;26.80;;;0.50;99.90;;;;;;4993675;28;20049;-76
2021/12/27 09:34:29;;;;;;;65.65;25.05;;;0.10;99.90;;;;;;4992684;28;20074;-74
2021/12/27 09:36:55;;;;;;;72.85;26.35;;;1.50;99.90;;;;;;4975711;28;20077;-75
2021/12/27 09:39:20;;;;;;;66.57;24.25;;;0.10;99.90;;;;;;4992074;28;20038;-74
2021/12/27 09:41:46;;;;;;;61.15;23.90;;;0.10;99.90;;;;;;4993619;28;20050;-74
2021/12/27 09:44:12;;;;;;;60.35;24.02;;;0.10;99.90;;;;;;4975408;28;20050;-75
2021/12/27 09:46:37;;;;;;;60.60;24.30;;;0.20;99.90;;;;;;4991763;28;20435;-78
2021/12/27 09:49:10;;;;;;;66.45;24.77;;;0.20;99.90;;;;;;4991654;28;20042;-79
2021/12/27 09:51:37;;;;;;;44.47;20.38;;;0.30;99.90;;;;;;4975435;28;20211;-75
2021/12/27 09:54:04;;;;;;;50.50;21.08;;;0.20;99.90;;;;;;4975780;28;20050;-78
2021/12/27 09:56:30;;;;;;;50.22;20.52;;;1.30;99.90;;;;;;4974631;28;20070;-78
2021/12/27 09:58:56;;;;;;;51.13;22.85;;;0.10;99.90;;;;;;4992075;28;20078;-74
2021/12/27 10:01:21;;;;;;;54.85;23.40;;;0.30;99.90;;;;;;4975325;28;20050;-79
2021/12/27 10:03:53;;;;;;;44.70;20.20;;;-0.60;99.90;;;;;;4974783;28;20057;-76
2021/12/27 10:06:22;;;;;;;48.80;22.42;;;0.30;99.90;;;;;;4999541;28;20046;-75
2021/12/27 10:08:50;;;;;;;71.43;26.05;;;0.30;99.90;;;;;;4992074;28;20137;-77
2021/12/27 10:11:39;;;;;;;57.72;23.45;;;0.20;99.90;;;;;;5015637;28;20049;-75
2021/12/27 10:14:09;;;;;;;56.65;22.90;;;1.80;99.90;;;;;;4972116;28;20049;-75
2021/12/27 10:16:46;;;;;;;45.80;20.33;;;0.60;99.90;;;;;;4968998;28;20065;-75
2021/12/27 10:19:16;;;;;;;53.97;23.38;;;0.30;99.90;;;;;;4974735;28;20411;-75
2021/12/27 10:21:43;;;;;;;70.80;26.05;;;0.40;99.90;;;;;;4975423;28;20051;-75
2021/12/27 10:24:14;;;;;;;85.10;27.50;;;-1.30;99.90;;;;;;4974603;28;20053;-75
2021/12/27 10:26:42;;;;;;;59.72;23.83;;;0.40;99.90;;;;;;4974799;28;20042;-78
2021/12/27 10:29:20;;;;;;;66.07;24.92;;;0.40;99.90;;;;;;4991310;28;20057;-76
2021/12/27 10:31:50;;;;;;;64.45;25.20;;;0.40;99.90;;;;;;4990890;28;20056;-76
2021/12/27 10:34:16;;;;;;;79.78;26.92;;;0.40;99.90;;;;;;4990754;28;20045;-75
2021/12/27 10:37:28;;;;;;;81.60;25.52;;;0.40;99.90;;;;;;4991103;28;20038;-77
2021/12/27 10:40:03;;;;;;;83.20;25.95;;;0.50;99.90;;;;;;4974826;28;20414;-79
2021/12/27 10:42:45;;;;;;;76.00;25.65;;;0.50;99.90;;;;;;4967795;28;20042;-75
2021/12/27 10:45:19;;;;;;;78.10;27.90;;;0.50;99.90;;;;;;4975032;28;20099;-75
2021/12/27 10:47:51;;;;;;;72.43;27.08;;;0.50;99.90;;;;;;4991213;28;20043;-75
2021/12/27 10:50:23;;;;;;;102.43;29.15;;;0.30;99.90;;;;;;4974775;28;20125;-77
2021/12/27 10:52:59;;;;;;;102.45;28.02;;;0.60;99.90;;;;;;4974285;28;20495;-77
2021/12/27 10:55:30;;;;;;;91.95;28.23;;;0.50;99.90;;;;;;4966774;28;20490;-77
2021/12/27 10:58:25;;;;;;;103.57;30.02;;;0.60;99.90;;;;;;4975199;28;20049;-74
2021/12/27 11:00:54;;;;;;;;;;;0.60;99.90;;;;;;4971039;28;20381;-76
2021/12/27 11:03:29;;;;;;;64.35;24.83;;;0.60;99.90;;;;;;5022881;28;19937;-77
2021/12/27 11:05:56;;;;;;;70.93;25.83;;;0.70;99.90;;;;;;4990985;28;20406;-75
2021/12/27 11:08:22;;;;;;;79.40;28.50;;;0.70;99.90;;;;;;4989752;28;20081;-76
2021/12/27 11:10:48;;;;;;;104.63;30.88;;;0.70;99.90;;;;;;4990782;28;20057;-79
2021/12/27 11:13:14;;;;;;;92.72;30.25;;;0.70;99.90;;;;;;4974590;28;20042;-75
2021/12/27 11:15:41;;;;;;;97.93;31.13;;;1.00;99.90;;;;;;4989521;28;20117;-80
2021/12/27 11:18:07;;;;;;;87.05;28.52;;;1.10;99.90;;;;;;4992369;28;20054;-78
2021/12/27 11:20:34;;;;;;;113.13;33.13;;;0.80;99.90;;;;;;4994029;28;20061;-76
2021/12/27 11:23:01;;;;;;;66.75;25.65;;;0.80;99.90;;;;;;4995957;28;20038;-75
2021/12/27 11:25:33;;;;;;;96.20;30.20;;;0.90;99.90;;;;;;4978208;28;20429;-76
2021/12/27 11:28:00;;;;;;;155.75;33.92;;;0.90;99.90;;;;;;4993962;28;20414;-80
2021/12/27 11:30:29;;;;;;;85.97;28.40;;;0.90;99.90;;;;;;5019227;28;20050;-76
2021/12/27 11:33:00;;;;;;;101.18;30.83;;;0.80;99.90;;;;;;5027427;28;20053;-75
2021/12/27 11:35:25;;;;;;;90.68;28.60;;;1.40;99.90;;;;;;4976898;28;20054;-78
2021/12/27 11:37:52;;;;;;;76.50;26.60;;;0.90;99.90;;;;;;4995848;28;20047;-76
2021/12/27 11:40:18;;;;;;;81.78;27.25;;;0.90;99.90;;;;;;4993849;28;20077;-75
2021/12/27 11:42:59;;;;;;;73.78;26.98;;;2.80;99.90;;;;;;4977221;28;20042;-80
2021/12/27 11:45:47;;;;;;;135.00;31.88;;;2.70;99.90;;;;;;4993736;28;20050;-76
2021/12/27 11:48:19;;;;;;;76.85;26.98;;;0.90;99.90;;;;;;4994598;28;20057;-79
2021/12/27 11:50:57;;;;;;;73.53;26.92;;;0.60;99.90;;;;;;4977417;28;20057;-76
2021/12/27 11:53:34;;;;;;;74.35;28.02;;;1.70;99.90;;;;;;4977208;28;20050;-75
2021/12/27 11:56:10;;;;;;;79.95;27.58;;;1.00;99.90;;;;;;4977707;28;20050;-79
2021/12/27 11:58:43;;;;;;;104.57;27.25;;;1.00;99.90;;;;;;5003155;28;20054;-76
2021/12/27 12:01:21;;;;;;;80.35;27.13;;;1.00;99.90;;;;;;4978538;28;20101;-76
2021/12/27 12:03:48;;;;;;;123.78;57.35;;;1.00;99.90;;;;;;4976969;28;20662;-79
2021/12/27 12:06:43;;;;;;;84.30;28.45;;;1.30;99.90;;;;;;4978365;28;20591;-75
2021/12/27 12:09:15;;;;;;;117.47;30.50;;;1.10;99.90;;;;;;4993972;28;20494;-76
2021/12/27 12:11:41;;;;;;;90.82;29.23;;;2.50;99.90;;;;;;4977118;28;20558;-75
2021/12/27 12:14:42;;;;;;;91.93;27.85;;;1.10;99.90;;;;;;4977201;28;20053;-75
2021/12/27 12:17:14;;;;;;;100.75;28.98;;;1.10;99.90;;;;;;4915294;29;20060;-76
2021/12/27 12:19:48;;;;;;;117.45;29.38;;;1.60;99.90;;;;;;4977550;28;20124;-75
2021/12/27 12:22:38;;;;;;;99.70;30.77;;;1.20;99.90;;;;;;4993849;28;20046;-79
2021/12/27 12:25:22;;;;;;;138.43;32.13;;;1.20;99.90;;;;;;4993220;28;20065;-79
2021/12/27 12:27:59;;;;;;;127.93;30.67;;;1.20;99.90;;;;;;4971826;28;20131;-76
2021/12/27 12:30:32;;;;;;;146.35;34.10;;;1.20;99.90;;;;;;4992405;28;20046;-74
2021/12/27 12:33:17;;;;;;;149.00;34.05;;;1.20;99.90;;;;;;4992764;28;20105;-79
2021/12/27 12:35:56;;;;;;;88.00;28.80;;;1.20;99.90;;;;;;5019870;28;20380;-79
2021/12/27 12:38:25;;;;;;;110.03;28.88;;;1.20;99.90;;;;;;4992522;28;20136;-79